sensor_id;sensor_type;location;lat;lon;timestamp;P1;durP1;ratioP1;P2;durP2;ratioP2
60935;SDS011;46804;51.786;19.520;2023-04-25T00:02:21;6.25;;;4.50;;
60935;SDS011;46804;51.786;19.520;2023-04-25T00:06:22;7.18;;;4.50;;
60935;SDS011;46804;51.786;19.520;2023-04-25T00:10:26;9.55;;;4.90;;
60935;SDS011;46804;51.786;19.520;2023-04-25T00:14:27;8.20;;;5.22;;
60935;SDS011;46804;51.786;19.520;2023-04-25T00:18:28;6.65;;;4.90;;
60935;SDS011;46804;51.786;19.520;2023-04-25T00:22:33;6.68;;;4.32;;
60935;SDS011;46804;51.786;19.520;2023-04-25T00:26:34;8.93;;;5.55;;
60935;SDS011;46804;51.786;19.520;2023-04-25T00:30:36;10.15;;;4.47;;
60935;SDS011;46804;51.786;19.520;2023-04-25T00:34:37;8.00;;;4.68;;
60935;SDS011;46804;51.786;19.520;2023-04-25T00:38:37;6.97;;;3.97;;
60935;SDS011;46804;51.786;19.520;2023-04-25T00:42:38;7.32;;;4.70;;
60935;SDS011;46804;51.786;19.520;2023-04-25T00:46:39;6.85;;;4.40;;
60935;SDS011;46804;51.786;19.520;2023-04-25T00:50:40;8.20;;;4.18;;
60935;SDS011;46804;51.786;19.520;2023-04-25T00:54:41;8.05;;;4.68;;
60935;SDS011;46804;51.786;19.520;2023-04-25T00:58:43;5.88;;;4.22;;
60935;SDS011;46804;51.786;19.520;2023-04-25T01:02:44;6.97;;;4.20;;
60935;SDS011;46804;51.786;19.520;2023-04-25T01:06:45;7.82;;;4.75;;
60935;SDS011;46804;51.786;19.520;2023-04-25T01:10:46;8.50;;;4.95;;
60935;SDS011;46804;51.786;19.520;2023-04-25T01:14:47;8.18;;;5.03;;
60935;SDS011;46804;51.786;19.520;2023-04-25T01:18:48;8.35;;;5.00;;
60935;SDS011;46804;51.786;19.520;2023-04-25T01:22:49;7.72;;;4.80;;
60935;SDS011;46804;51.786;19.520;2023-04-25T01:26:51;7.88;;;4.95;;
60935;SDS011;46804;51.786;19.520;2023-04-25T01:30:53;7.85;;;5.05;;
60935;SDS011;46804;51.786;19.520;2023-04-25T01:34:54;7.78;;;5.30;;
60935;SDS011;46804;51.786;19.520;2023-04-25T01:38:55;8.13;;;5.00;;
60935;SDS011;46804;51.786;19.520;2023-04-25T01:42:57;8.90;;;5.03;;
60935;SDS011;46804;51.786;19.520;2023-04-25T01:46:57;8.85;;;5.25;;
60935;SDS011;46804;51.786;19.520;2023-04-25T01:50:58;7.53;;;5.38;;
60935;SDS011;46804;51.786;19.520;2023-04-25T01:54:59;7.90;;;5.13;;
60935;SDS011;46804;51.786;19.520;2023-04-25T01:59:02;7.63;;;5.20;;
60935;SDS011;46804;51.786;19.520;2023-04-25T02:03:05;7.35;;;5.70;;
60935;SDS011;46804;51.786;19.520;2023-04-25T02:07:06;7.95;;;5.82;;
60935;SDS011;46804;51.786;19.520;2023-04-25T02:11:07;13.60;;;5.57;;
60935;SDS011;46804;51.786;19.520;2023-04-25T02:15:08;8.65;;;5.55;;
60935;SDS011;46804;51.786;19.520;2023-04-25T02:19:09;7.72;;;5.68;;
60935;SDS011;46804;51.786;19.520;2023-04-25T02:23:11;11.88;;;5.80;;
60935;SDS011;46804;51.786;19.520;2023-04-25T02:27:11;8.43;;;5.95;;
60935;SDS011;46804;51.786;19.520;2023-04-25T02:31:12;12.32;;;5.88;;
60935;SDS011;46804;51.786;19.520;2023-04-25T02:35:13;7.95;;;5.50;;
60935;SDS011;46804;51.786;19.520;2023-04-25T02:39:14;10.02;;;5.28;;
60935;SDS011;46804;51.786;19.520;2023-04-25T02:43:14;8.38;;;5.50;;
60935;SDS011;46804;51.786;19.520;2023-04-25T02:47:16;7.40;;;5.35;;
60935;SDS011;46804;51.786;19.520;2023-04-25T02:51:17;7.20;;;4.82;;
60935;SDS011;46804;51.786;19.520;2023-04-25T02:55:17;7.72;;;5.32;;
60935;SDS011;46804;51.786;19.520;2023-04-25T02:59:18;10.57;;;4.97;;
60935;SDS011;46804;51.786;19.520;2023-04-25T03:03:19;10.65;;;5.07;;
60935;SDS011;46804;51.786;19.520;2023-04-25T03:07:22;7.00;;;4.63;;
60935;SDS011;46804;51.786;19.520;2023-04-25T03:11:24;6.85;;;4.38;;
60935;SDS011;46804;51.786;19.520;2023-04-25T03:15:25;7.07;;;3.90;;
60935;SDS011;46804;51.786;19.520;2023-04-25T03:19:26;9.13;;;4.18;;
60935;SDS011;46804;51.786;19.520;2023-04-25T03:23:26;6.95;;;3.97;;
60935;SDS011;46804;51.786;19.520;2023-04-25T03:27:27;8.98;;;3.63;;
60935;SDS011;46804;51.786;19.520;2023-04-25T03:31:28;5.93;;;3.78;;
60935;SDS011;46804;51.786;19.520;2023-04-25T03:35:29;5.70;;;3.90;;
60935;SDS011;46804;51.786;19.520;2023-04-25T03:39:29;7.22;;;3.97;;
60935;SDS011;46804;51.786;19.520;2023-04-25T03:43:30;5.65;;;3.85;;
60935;SDS011;46804;51.786;19.520;2023-04-25T03:47:30;6.60;;;4.00;;
60935;SDS011;46804;51.786;19.520;2023-04-25T03:51:31;6.20;;;3.80;;
60935;SDS011;46804;51.786;19.520;2023-04-25T03:55:32;5.82;;;3.42;;
60935;SDS011;46804;51.786;19.520;2023-04-25T03:59:33;7.22;;;4.05;;
60935;SDS011;46804;51.786;19.520;2023-04-25T04:03:34;5.95;;;4.10;;
60935;SDS011;46804;51.786;19.520;2023-04-25T04:07:36;5.57;;;3.97;;
60935;SDS011;46804;51.786;19.520;2023-04-25T04:15:40;5.85;;;3.75;;
60935;SDS011;46804;51.786;19.520;2023-04-25T04:19:41;5.68;;;3.47;;
60935;SDS011;46804;51.786;19.520;2023-04-25T04:23:42;5.18;;;3.20;;
60935;SDS011;46804;51.786;19.520;2023-04-25T04:27:42;6.57;;;3.40;;
60935;SDS011;46804;51.786;19.520;2023-04-25T04:31:45;5.70;;;3.10;;
60935;SDS011;46804;51.786;19.520;2023-04-25T04:35:45;4.00;;;2.65;;
60935;SDS011;46804;51.786;19.520;2023-04-25T04:39:47;4.47;;;2.97;;
60935;SDS011;46804;51.786;19.520;2023-04-25T04:43:47;5.63;;;3.17;;
60935;SDS011;46804;51.786;19.520;2023-04-25T04:47:48;4.80;;;3.10;;
60935;SDS011;46804;51.786;19.520;2023-04-25T04:51:49;4.38;;;2.65;;
60935;SDS011;46804;51.786;19.520;2023-04-25T04:55:50;4.10;;;2.85;;
60935;SDS011;46804;51.786;19.520;2023-04-25T04:59:51;6.05;;;2.78;;
60935;SDS011;46804;51.786;19.520;2023-04-25T05:03:52;5.25;;;3.13;;
60935;SDS011;46804;51.786;19.520;2023-04-25T05:07:53;4.20;;;2.45;;
60935;SDS011;46804;51.786;19.520;2023-04-25T05:11:54;3.40;;;2.50;;
60935;SDS011;46804;51.786;19.520;2023-04-25T05:15:55;4.53;;;2.53;;
60935;SDS011;46804;51.786;19.520;2023-04-25T05:19:55;3.67;;;2.40;;
60935;SDS011;46804;51.786;19.520;2023-04-25T05:23:56;4.55;;;2.63;;
60935;SDS011;46804;51.786;19.520;2023-04-25T05:27:57;4.20;;;2.38;;
60935;SDS011;46804;51.786;19.520;2023-04-25T05:31:58;4.03;;;2.58;;
60935;SDS011;46804;51.786;19.520;2023-04-25T05:35:59;4.18;;;2.78;;
60935;SDS011;46804;51.786;19.520;2023-04-25T05:40:00;4.72;;;2.80;;
60935;SDS011;46804;51.786;19.520;2023-04-25T05:44:01;3.78;;;2.33;;
60935;SDS011;46804;51.786;19.520;2023-04-25T05:48:02;4.25;;;2.55;;
60935;SDS011;46804;51.786;19.520;2023-04-25T05:52:03;5.38;;;2.47;;
60935;SDS011;46804;51.786;19.520;2023-04-25T05:56:04;5.97;;;2.72;;
60935;SDS011;46804;51.786;19.520;2023-04-25T06:00:05;4.43;;;2.50;;
60935;SDS011;46804;51.786;19.520;2023-04-25T06:04:09;6.80;;;2.50;;
60935;SDS011;46804;51.786;19.520;2023-04-25T06:08:10;3.08;;;2.28;;
60935;SDS011;46804;51.786;19.520;2023-04-25T06:12:10;4.57;;;2.15;;
60935;SDS011;46804;51.786;19.520;2023-04-25T06:16:11;3.50;;;2.50;;
60935;SDS011;46804;51.786;19.520;2023-04-25T06:20:12;6.40;;;2.58;;
60935;SDS011;46804;51.786;19.520;2023-04-25T06:24:12;3.60;;;1.98;;
60935;SDS011;46804;51.786;19.520;2023-04-25T06:28:13;3.80;;;2.47;;
60935;SDS011;46804;51.786;19.520;2023-04-25T06:32:14;7.82;;;2.60;;
60935;SDS011;46804;51.786;19.520;2023-04-25T06:36:15;4.07;;;2.50;;
60935;SDS011;46804;51.786;19.520;2023-04-25T06:40:15;4.10;;;2.53;;
60935;SDS011;46804;51.786;19.520;2023-04-25T06:44:17;3.35;;;2.17;;
60935;SDS011;46804;51.786;19.520;2023-04-25T06:48:18;5.00;;;2.67;;
60935;SDS011;46804;51.786;19.520;2023-04-25T06:52:18;4.40;;;2.13;;
60935;SDS011;46804;51.786;19.520;2023-04-25T06:56:19;4.00;;;2.28;;
60935;SDS011;46804;51.786;19.520;2023-04-25T07:00:21;7.03;;;2.72;;
60935;SDS011;46804;51.786;19.520;2023-04-25T07:04:22;5.38;;;2.50;;
60935;SDS011;46804;51.786;19.520;2023-04-25T07:08:23;5.05;;;2.67;;
60935;SDS011;46804;51.786;19.520;2023-04-25T07:12:24;4.35;;;2.42;;
60935;SDS011;46804;51.786;19.520;2023-04-25T07:16:24;4.82;;;2.88;;
60935;SDS011;46804;51.786;19.520;2023-04-25T07:20:25;3.83;;;2.80;;
60935;SDS011;46804;51.786;19.520;2023-04-25T07:24:27;7.05;;;2.97;;
60935;SDS011;46804;51.786;19.520;2023-04-25T07:28:28;7.25;;;2.85;;
60935;SDS011;46804;51.786;19.520;2023-04-25T07:32:29;5.15;;;3.00;;
60935;SDS011;46804;51.786;19.520;2023-04-25T07:36:31;4.35;;;2.50;;
60935;SDS011;46804;51.786;19.520;2023-04-25T07:40:31;5.45;;;3.17;;
60935;SDS011;46804;51.786;19.520;2023-04-25T07:44:32;5.60;;;2.75;;
60935;SDS011;46804;51.786;19.520;2023-04-25T07:48:38;5.20;;;3.30;;
60935;SDS011;46804;51.786;19.520;2023-04-25T07:52:39;4.07;;;2.75;;
60935;SDS011;46804;51.786;19.520;2023-04-25T07:56:40;3.55;;;2.38;;
60935;SDS011;46804;51.786;19.520;2023-04-25T08:00:41;7.82;;;2.67;;
60935;SDS011;46804;51.786;19.520;2023-04-25T08:04:42;5.00;;;2.67;;
60935;SDS011;46804;51.786;19.520;2023-04-25T08:08:43;5.10;;;2.70;;
60935;SDS011;46804;51.786;19.520;2023-04-25T08:12:43;4.78;;;2.95;;
60935;SDS011;46804;51.786;19.520;2023-04-25T08:16:44;5.30;;;3.00;;
60935;SDS011;46804;51.786;19.520;2023-04-25T08:20:45;5.50;;;3.05;;
60935;SDS011;46804;51.786;19.520;2023-04-25T08:24:46;7.85;;;3.05;;
60935;SDS011;46804;51.786;19.520;2023-04-25T08:28:46;4.65;;;2.67;;
60935;SDS011;46804;51.786;19.520;2023-04-25T08:32:47;5.22;;;2.90;;
60935;SDS011;46804;51.786;19.520;2023-04-25T08:36:48;3.85;;;2.60;;
60935;SDS011;46804;51.786;19.520;2023-04-25T08:40:49;5.57;;;3.10;;
60935;SDS011;46804;51.786;19.520;2023-04-25T08:44:53;5.87;;;2.63;;
60935;SDS011;46804;51.786;19.520;2023-04-25T08:48:54;3.63;;;2.40;;
60935;SDS011;46804;51.786;19.520;2023-04-25T08:53:00;4.47;;;2.72;;
60935;SDS011;46804;51.786;19.520;2023-04-25T08:57:04;4.22;;;2.63;;
60935;SDS011;46804;51.786;19.520;2023-04-25T09:01:06;5.35;;;2.80;;
60935;SDS011;46804;51.786;19.520;2023-04-25T09:05:07;5.38;;;2.30;;
60935;SDS011;46804;51.786;19.520;2023-04-25T09:09:10;3.97;;;2.50;;
60935;SDS011;46804;51.786;19.520;2023-04-25T09:13:14;4.28;;;2.55;;
60935;SDS011;46804;51.786;19.520;2023-04-25T09:17:24;4.43;;;2.42;;
60935;SDS011;46804;51.786;19.520;2023-04-25T09:21:24;3.30;;;2.40;;
60935;SDS011;46804;51.786;19.520;2023-04-25T09:25:25;5.00;;;2.47;;
60935;SDS011;46804;51.786;19.520;2023-04-25T09:29:29;4.32;;;2.40;;
60935;SDS011;46804;51.786;19.520;2023-04-25T09:33:32;4.25;;;2.55;;
60935;SDS011;46804;51.786;19.520;2023-04-25T09:37:36;4.05;;;2.40;;
60935;SDS011;46804;51.786;19.520;2023-04-25T09:41:37;5.50;;;2.30;;
60935;SDS011;46804;51.786;19.520;2023-04-25T09:45:41;4.03;;;2.40;;
60935;SDS011;46804;51.786;19.520;2023-04-25T09:49:46;3.95;;;2.50;;
60935;SDS011;46804;51.786;19.520;2023-04-25T09:53:46;3.92;;;2.42;;
60935;SDS011;46804;51.786;19.520;2023-04-25T09:57:50;4.13;;;2.50;;
60935;SDS011;46804;51.786;19.520;2023-04-25T10:01:54;4.10;;;2.50;;
60935;SDS011;46804;51.786;19.520;2023-04-25T10:06:00;5.80;;;3.33;;
60935;SDS011;46804;51.786;19.520;2023-04-25T10:10:03;5.03;;;3.03;;
60935;SDS011;46804;51.786;19.520;2023-04-25T10:14:05;5.50;;;2.75;;
60935;SDS011;46804;51.786;19.520;2023-04-25T10:18:06;6.40;;;2.83;;
60935;SDS011;46804;51.786;19.520;2023-04-25T10:22:14;4.72;;;2.83;;
60935;SDS011;46804;51.786;19.520;2023-04-25T10:26:19;4.90;;;3.20;;
60935;SDS011;46804;51.786;19.520;2023-04-25T10:30:20;9.48;;;3.13;;
60935;SDS011;46804;51.786;19.520;2023-04-25T10:34:23;6.22;;;3.30;;
60935;SDS011;46804;51.786;19.520;2023-04-25T10:38:38;5.53;;;3.58;;
60935;SDS011;46804;51.786;19.520;2023-04-25T10:42:40;3.80;;;2.80;;
60935;SDS011;46804;51.786;19.520;2023-04-25T10:46:41;4.40;;;2.80;;
60935;SDS011;46804;51.786;19.520;2023-04-25T10:50:44;5.38;;;3.13;;
60935;SDS011;46804;51.786;19.520;2023-04-25T10:54:50;5.78;;;3.10;;
60935;SDS011;46804;51.786;19.520;2023-04-25T10:59:26;5.82;;;3.10;;
60935;SDS011;46804;51.786;19.520;2023-04-25T11:03:21;3.90;;;2.95;;
60935;SDS011;46804;51.786;19.520;2023-04-25T11:11:36;5.03;;;2.70;;
60935;SDS011;46804;51.786;19.520;2023-04-25T11:15:37;5.43;;;3.10;;
60935;SDS011;46804;51.786;19.520;2023-04-25T11:19:38;7.32;;;4.05;;
60935;SDS011;46804;51.786;19.520;2023-04-25T11:23:38;5.32;;;3.67;;
60935;SDS011;46804;51.786;19.520;2023-04-25T11:27:55;6.70;;;3.90;;
60935;SDS011;46804;51.786;19.520;2023-04-25T11:31:57;6.53;;;3.50;;
60935;SDS011;46804;51.786;19.520;2023-04-25T11:35:58;5.32;;;3.58;;
60935;SDS011;46804;51.786;19.520;2023-04-25T11:39:59;4.30;;;3.17;;
60935;SDS011;46804;51.786;19.520;2023-04-25T11:44:00;5.95;;;3.00;;
60935;SDS011;46804;51.786;19.520;2023-04-25T11:48:01;5.72;;;3.50;;
60935;SDS011;46804;51.786;19.520;2023-04-25T11:52:03;6.78;;;3.58;;
60935;SDS011;46804;51.786;19.520;2023-04-25T11:56:10;5.82;;;3.17;;
60935;SDS011;46804;51.786;19.520;2023-04-25T12:00:15;3.72;;;2.90;;
60935;SDS011;46804;51.786;19.520;2023-04-25T12:04:19;5.72;;;3.45;;
60935;SDS011;46804;51.786;19.520;2023-04-25T12:12:26;10.20;;;3.10;;
60935;SDS011;46804;51.786;19.520;2023-04-25T12:16:28;4.65;;;3.40;;
60935;SDS011;46804;51.786;19.520;2023-04-25T12:20:28;4.00;;;3.10;;
60935;SDS011;46804;51.786;19.520;2023-04-25T12:24:33;5.68;;;3.63;;
60935;SDS011;46804;51.786;19.520;2023-04-25T12:28:34;5.47;;;3.10;;
60935;SDS011;46804;51.786;19.520;2023-04-25T12:32:35;4.47;;;2.95;;
60935;SDS011;46804;51.786;19.520;2023-04-25T12:36:36;5.47;;;3.35;;
60935;SDS011;46804;51.786;19.520;2023-04-25T12:40:37;4.82;;;2.95;;
60935;SDS011;46804;51.786;19.520;2023-04-25T12:44:38;5.93;;;2.95;;
60935;SDS011;46804;51.786;19.520;2023-04-25T12:48:39;5.55;;;2.60;;
60935;SDS011;46804;51.786;19.520;2023-04-25T12:52:39;4.65;;;2.47;;
60935;SDS011;46804;51.786;19.520;2023-04-25T12:56:40;3.83;;;2.08;;
60935;SDS011;46804;51.786;19.520;2023-04-25T13:00:41;3.45;;;2.00;;
60935;SDS011;46804;51.786;19.520;2023-04-25T13:04:43;3.15;;;1.98;;
60935;SDS011;46804;51.786;19.520;2023-04-25T13:08:44;3.17;;;2.10;;
60935;SDS011;46804;51.786;19.520;2023-04-25T13:12:45;3.78;;;2.30;;
60935;SDS011;46804;51.786;19.520;2023-04-25T13:16:46;3.33;;;2.50;;
60935;SDS011;46804;51.786;19.520;2023-04-25T13:20:47;4.57;;;2.22;;
60935;SDS011;46804;51.786;19.520;2023-04-25T13:24:47;3.20;;;2.35;;
60935;SDS011;46804;51.786;19.520;2023-04-25T13:28:48;4.43;;;2.85;;
60935;SDS011;46804;51.786;19.520;2023-04-25T13:32:49;5.78;;;2.83;;
60935;SDS011;46804;51.786;19.520;2023-04-25T13:36:50;4.60;;;2.70;;
60935;SDS011;46804;51.786;19.520;2023-04-25T13:40:50;4.68;;;2.45;;
60935;SDS011;46804;51.786;19.520;2023-04-25T13:44:54;4.90;;;2.95;;
60935;SDS011;46804;51.786;19.520;2023-04-25T13:48:55;5.30;;;2.63;;
60935;SDS011;46804;51.786;19.520;2023-04-25T13:52:56;3.13;;;2.30;;
60935;SDS011;46804;51.786;19.520;2023-04-25T13:56:56;5.38;;;2.58;;
60935;SDS011;46804;51.786;19.520;2023-04-25T14:00:59;4.97;;;2.40;;
60935;SDS011;46804;51.786;19.520;2023-04-25T14:05:00;5.00;;;2.38;;
60935;SDS011;46804;51.786;19.520;2023-04-25T14:09:01;5.80;;;2.83;;
60935;SDS011;46804;51.786;19.520;2023-04-25T14:13:02;3.47;;;2.28;;
60935;SDS011;46804;51.786;19.520;2023-04-25T14:17:03;4.45;;;2.58;;
60935;SDS011;46804;51.786;19.520;2023-04-25T14:21:04;4.30;;;2.40;;
60935;SDS011;46804;51.786;19.520;2023-04-25T14:25:05;4.20;;;2.38;;
60935;SDS011;46804;51.786;19.520;2023-04-25T14:29:06;4.07;;;2.42;;
60935;SDS011;46804;51.786;19.520;2023-04-25T14:33:08;5.63;;;2.85;;
60935;SDS011;46804;51.786;19.520;2023-04-25T14:37:09;4.20;;;2.70;;
60935;SDS011;46804;51.786;19.520;2023-04-25T14:41:10;4.78;;;2.50;;
60935;SDS011;46804;51.786;19.520;2023-04-25T14:45:11;6.70;;;2.70;;
60935;SDS011;46804;51.786;19.520;2023-04-25T14:49:12;4.10;;;2.40;;
60935;SDS011;46804;51.786;19.520;2023-04-25T14:53:12;6.10;;;2.30;;
60935;SDS011;46804;51.786;19.520;2023-04-25T14:57:13;6.40;;;2.33;;
60935;SDS011;46804;51.786;19.520;2023-04-25T15:01:14;8.43;;;2.13;;
60935;SDS011;46804;51.786;19.520;2023-04-25T15:05:15;5.13;;;2.22;;
60935;SDS011;46804;51.786;19.520;2023-04-25T15:09:16;6.20;;;2.30;;
60935;SDS011;46804;51.786;19.520;2023-04-25T15:13:20;3.80;;;2.13;;
60935;SDS011;46804;51.786;19.520;2023-04-25T15:17:21;6.70;;;2.38;;
60935;SDS011;46804;51.786;19.520;2023-04-25T15:21:21;4.72;;;2.60;;
60935;SDS011;46804;51.786;19.520;2023-04-25T15:25:22;3.63;;;2.30;;
60935;SDS011;46804;51.786;19.520;2023-04-25T15:29:23;3.92;;;2.10;;
60935;SDS011;46804;51.786;19.520;2023-04-25T15:33:25;3.58;;;2.30;;
60935;SDS011;46804;51.786;19.520;2023-04-25T15:37:26;7.53;;;2.63;;
60935;SDS011;46804;51.786;19.520;2023-04-25T15:41:26;3.78;;;2.58;;
60935;SDS011;46804;51.786;19.520;2023-04-25T15:45:27;6.50;;;2.92;;
60935;SDS011;46804;51.786;19.520;2023-04-25T15:49:29;4.38;;;2.58;;
60935;SDS011;46804;51.786;19.520;2023-04-25T15:53:30;7.00;;;3.05;;
60935;SDS011;46804;51.786;19.520;2023-04-25T15:57:32;7.60;;;2.63;;
60935;SDS011;46804;51.786;19.520;2023-04-25T16:01:35;5.43;;;2.47;;
60935;SDS011;46804;51.786;19.520;2023-04-25T16:05:35;5.22;;;2.65;;
60935;SDS011;46804;51.786;19.520;2023-04-25T16:09:36;5.20;;;2.80;;
60935;SDS011;46804;51.786;19.520;2023-04-25T16:13:37;6.55;;;2.85;;
60935;SDS011;46804;51.786;19.520;2023-04-25T16:17:38;5.97;;;2.63;;
60935;SDS011;46804;51.786;19.520;2023-04-25T16:21:39;3.88;;;2.53;;
60935;SDS011;46804;51.786;19.520;2023-04-25T16:25:40;4.45;;;2.83;;
60935;SDS011;46804;51.786;19.520;2023-04-25T16:29:42;4.00;;;2.28;;
60935;SDS011;46804;51.786;19.520;2023-04-25T16:33:43;4.60;;;2.33;;
60935;SDS011;46804;51.786;19.520;2023-04-25T16:37:43;4.50;;;2.75;;
60935;SDS011;46804;51.786;19.520;2023-04-25T16:41:44;5.43;;;2.85;;
60935;SDS011;46804;51.786;19.520;2023-04-25T16:45:45;4.50;;;2.90;;
60935;SDS011;46804;51.786;19.520;2023-04-25T16:49:46;6.82;;;3.13;;
60935;SDS011;46804;51.786;19.520;2023-04-25T16:53:47;4.95;;;2.83;;
60935;SDS011;46804;51.786;19.520;2023-04-25T16:57:48;12.30;;;3.20;;
60935;SDS011;46804;51.786;19.520;2023-04-25T17:01:49;3.55;;;2.50;;
60935;SDS011;46804;51.786;19.520;2023-04-25T17:05:49;4.80;;;3.05;;
60935;SDS011;46804;51.786;19.520;2023-04-25T17:09:50;6.28;;;3.15;;
60935;SDS011;46804;51.786;19.520;2023-04-25T17:13:51;8.20;;;3.92;;
60935;SDS011;46804;51.786;19.520;2023-04-25T17:17:51;5.10;;;3.08;;
60935;SDS011;46804;51.786;19.520;2023-04-25T17:21:52;8.43;;;3.10;;
60935;SDS011;46804;51.786;19.520;2023-04-25T17:25:52;6.40;;;3.08;;
60935;SDS011;46804;51.786;19.520;2023-04-25T17:29:53;7.22;;;4.15;;
60935;SDS011;46804;51.786;19.520;2023-04-25T17:33:54;9.52;;;3.72;;
60935;SDS011;46804;51.786;19.520;2023-04-25T17:37:54;5.32;;;2.97;;
60935;SDS011;46804;51.786;19.520;2023-04-25T17:41:56;7.45;;;3.50;;
60935;SDS011;46804;51.786;19.520;2023-04-25T17:45:57;9.15;;;3.58;;
60935;SDS011;46804;51.786;19.520;2023-04-25T17:49:58;5.32;;;3.20;;
60935;SDS011;46804;51.786;19.520;2023-04-25T17:53:59;7.15;;;3.45;;
60935;SDS011;46804;51.786;19.520;2023-04-25T17:58:00;10.07;;;3.72;;
60935;SDS011;46804;51.786;19.520;2023-04-25T18:02:01;6.75;;;3.55;;
60935;SDS011;46804;51.786;19.520;2023-04-25T18:06:03;6.50;;;4.03;;
60935;SDS011;46804;51.786;19.520;2023-04-25T18:10:04;8.00;;;3.97;;
60935;SDS011;46804;51.786;19.520;2023-04-25T18:14:05;6.55;;;4.13;;
60935;SDS011;46804;51.786;19.520;2023-04-25T18:18:07;6.40;;;3.50;;
60935;SDS011;46804;51.786;19.520;2023-04-25T18:22:14;7.10;;;3.50;;
60935;SDS011;46804;51.786;19.520;2023-04-25T18:26:15;9.38;;;4.07;;
60935;SDS011;46804;51.786;19.520;2023-04-25T18:30:16;6.30;;;4.25;;
60935;SDS011;46804;51.786;19.520;2023-04-25T18:34:17;14.55;;;4.63;;
60935;SDS011;46804;51.786;19.520;2023-04-25T18:38:19;9.90;;;5.33;;
60935;SDS011;46804;51.786;19.520;2023-04-25T18:42:21;5.47;;;4.00;;
60935;SDS011;46804;51.786;19.520;2023-04-25T18:46:22;6.68;;;4.78;;
60935;SDS011;46804;51.786;19.520;2023-04-25T18:50:22;8.77;;;4.30;;
60935;SDS011;46804;51.786;19.520;2023-04-25T18:54:25;9.90;;;5.53;;
60935;SDS011;46804;51.786;19.520;2023-04-25T18:58:26;10.15;;;4.60;;
60935;SDS011;46804;51.786;19.520;2023-04-25T19:02:27;12.00;;;4.95;;
60935;SDS011;46804;51.786;19.520;2023-04-25T19:06:28;6.57;;;4.50;;
60935;SDS011;46804;51.786;19.520;2023-04-25T19:10:32;7.18;;;4.43;;
60935;SDS011;46804;51.786;19.520;2023-04-25T19:14:32;8.48;;;4.63;;
60935;SDS011;46804;51.786;19.520;2023-04-25T19:18:33;8.40;;;4.93;;
60935;SDS011;46804;51.786;19.520;2023-04-25T19:22:34;7.28;;;4.55;;
60935;SDS011;46804;51.786;19.520;2023-04-25T19:26:34;8.48;;;4.95;;
60935;SDS011;46804;51.786;19.520;2023-04-25T19:30:35;6.95;;;4.15;;
60935;SDS011;46804;51.786;19.520;2023-04-25T19:34:36;10.55;;;4.82;;
60935;SDS011;46804;51.786;19.520;2023-04-25T19:38:37;8.25;;;4.70;;
60935;SDS011;46804;51.786;19.520;2023-04-25T19:42:37;10.63;;;5.10;;
60935;SDS011;46804;51.786;19.520;2023-04-25T19:46:38;8.20;;;4.45;;
60935;SDS011;46804;51.786;19.520;2023-04-25T19:50:39;9.38;;;4.72;;
60935;SDS011;46804;51.786;19.520;2023-04-25T19:54:41;8.45;;;4.70;;
60935;SDS011;46804;51.786;19.520;2023-04-25T19:58:41;10.07;;;5.32;;
60935;SDS011;46804;51.786;19.520;2023-04-25T20:02:42;8.48;;;4.90;;
60935;SDS011;46804;51.786;19.520;2023-04-25T20:06:47;9.40;;;4.40;;
60935;SDS011;46804;51.786;19.520;2023-04-25T20:10:47;7.22;;;4.35;;
60935;SDS011;46804;51.786;19.520;2023-04-25T20:14:50;7.78;;;3.67;;
60935;SDS011;46804;51.786;19.520;2023-04-25T20:18:51;5.70;;;3.25;;
60935;SDS011;46804;51.786;19.520;2023-04-25T20:22:52;5.85;;;3.88;;
60935;SDS011;46804;51.786;19.520;2023-04-25T20:26:54;5.63;;;3.40;;
60935;SDS011;46804;51.786;19.520;2023-04-25T20:35:00;7.90;;;3.22;;
60935;SDS011;46804;51.786;19.520;2023-04-25T20:39:05;10.10;;;3.42;;
60935;SDS011;46804;51.786;19.520;2023-04-25T20:43:07;10.70;;;3.60;;
60935;SDS011;46804;51.786;19.520;2023-04-25T20:47:10;6.95;;;3.88;;
60935;SDS011;46804;51.786;19.520;2023-04-25T20:51:11;8.55;;;3.90;;
60935;SDS011;46804;51.786;19.520;2023-04-25T20:55:12;8.68;;;3.58;;
60935;SDS011;46804;51.786;19.520;2023-04-25T20:59:12;9.60;;;3.60;;
60935;SDS011;46804;51.786;19.520;2023-04-25T21:03:13;7.43;;;3.67;;
60935;SDS011;46804;51.786;19.520;2023-04-25T21:07:15;12.65;;;3.85;;
60935;SDS011;46804;51.786;19.520;2023-04-25T21:11:15;9.27;;;3.25;;
60935;SDS011;46804;51.786;19.520;2023-04-25T21:15:19;10.25;;;3.72;;
60935;SDS011;46804;51.786;19.520;2023-04-25T21:19:20;11.90;;;3.58;;
60935;SDS011;46804;51.786;19.520;2023-04-25T21:23:21;10.15;;;4.03;;
60935;SDS011;46804;51.786;19.520;2023-04-25T21:27:22;19.98;;;3.83;;
60935;SDS011;46804;51.786;19.520;2023-04-25T21:31:22;7.68;;;3.50;;
60935;SDS011;46804;51.786;19.520;2023-04-25T21:35:23;7.75;;;3.30;;
60935;SDS011;46804;51.786;19.520;2023-04-25T21:39:24;9.88;;;3.28;;
60935;SDS011;46804;51.786;19.520;2023-04-25T21:43:25;11.50;;;3.80;;
60935;SDS011;46804;51.786;19.520;2023-04-25T21:47:26;6.60;;;3.35;;
60935;SDS011;46804;51.786;19.520;2023-04-25T21:51:26;12.65;;;3.08;;
60935;SDS011;46804;51.786;19.520;2023-04-25T21:55:28;10.63;;;3.78;;
60935;SDS011;46804;51.786;19.520;2023-04-25T21:59:29;11.60;;;3.70;;
60935;SDS011;46804;51.786;19.520;2023-04-25T22:03:30;14.57;;;4.38;;
60935;SDS011;46804;51.786;19.520;2023-04-25T22:07:31;11.25;;;4.00;;
60935;SDS011;46804;51.786;19.520;2023-04-25T22:11:32;9.77;;;3.92;;
60935;SDS011;46804;51.786;19.520;2023-04-25T22:15:32;10.73;;;3.35;;
60935;SDS011;46804;51.786;19.520;2023-04-25T22:19:34;12.32;;;3.88;;
60935;SDS011;46804;51.786;19.520;2023-04-25T22:23:36;11.48;;;3.60;;
60935;SDS011;46804;51.786;19.520;2023-04-25T22:27:37;8.30;;;3.67;;
60935;SDS011;46804;51.786;19.520;2023-04-25T22:31:42;13.57;;;3.17;;
60935;SDS011;46804;51.786;19.520;2023-04-25T22:35:43;10.05;;;2.78;;
60935;SDS011;46804;51.786;19.520;2023-04-25T22:39:44;14.05;;;2.75;;
60935;SDS011;46804;51.786;19.520;2023-04-25T22:43:45;7.60;;;3.10;;
60935;SDS011;46804;51.786;19.520;2023-04-25T22:47:46;10.25;;;2.80;;
60935;SDS011;46804;51.786;19.520;2023-04-25T22:51:47;6.85;;;2.90;;
60935;SDS011;46804;51.786;19.520;2023-04-25T22:55:56;4.60;;;2.25;;
60935;SDS011;46804;51.786;19.520;2023-04-25T22:59:57;8.02;;;2.55;;
60935;SDS011;46804;51.786;19.520;2023-04-25T23:03:58;5.95;;;3.10;;
60935;SDS011;46804;51.786;19.520;2023-04-25T23:07:59;7.85;;;2.63;;
60935;SDS011;46804;51.786;19.520;2023-04-25T23:11:59;9.60;;;3.20;;
60935;SDS011;46804;51.786;19.520;2023-04-25T23:16:05;5.35;;;2.55;;
60935;SDS011;46804;51.786;19.520;2023-04-25T23:20:08;6.30;;;3.13;;
60935;SDS011;46804;51.786;19.520;2023-04-25T23:24:10;6.30;;;2.45;;
60935;SDS011;46804;51.786;19.520;2023-04-25T23:28:11;7.63;;;2.58;;
60935;SDS011;46804;51.786;19.520;2023-04-25T23:32:12;7.35;;;2.33;;
60935;SDS011;46804;51.786;19.520;2023-04-25T23:36:16;6.93;;;2.70;;
60935;SDS011;46804;51.786;19.520;2023-04-25T23:40:20;9.48;;;2.42;;
60935;SDS011;46804;51.786;19.520;2023-04-25T23:44:21;5.20;;;2.35;;
60935;SDS011;46804;51.786;19.520;2023-04-25T23:48:21;9.40;;;2.70;;
60935;SDS011;46804;51.786;19.520;2023-04-25T23:52:22;5.45;;;2.55;;
60935;SDS011;46804;51.786;19.520;2023-04-25T23:56:23;8.30;;;2.90;;
